地図

経路データ

SID SEASON NUMBER BASIN SUBBASIN NAME ISO_TIME NATURE LAT LON WMO_WIND WMO_PRES WMO_AGENCY TRACK_TYPE DIST2LAND LANDFALL IFLAG USA_AGENCY USA_ATCF_ID USA_LAT USA_LON USA_RECORD USA_STATUS USA_WIND USA_PRES USA_SSHS USA_R34_NE USA_R34_SE USA_R34_SW USA_R34_NW USA_R50_NE USA_R50_SE USA_R50_SW USA_R50_NW USA_R64_NE USA_R64_SE USA_R64_SW USA_R64_NW USA_POCI USA_ROCI USA_RMW USA_EYE TOKYO_LAT TOKYO_LON TOKYO_GRADE TOKYO_WIND TOKYO_PRES TOKYO_R50_DIR TOKYO_R50_LONG TOKYO_R50_SHORT TOKYO_R30_DIR TOKYO_R30_LONG TOKYO_R30_SHORT TOKYO_LAND CMA_LAT CMA_LON CMA_CAT CMA_WIND CMA_PRES HKO_LAT HKO_LON HKO_CAT HKO_WIND HKO_PRES NEWDELHI_LAT NEWDELHI_LON NEWDELHI_GRADE NEWDELHI_WIND NEWDELHI_PRES NEWDELHI_CI NEWDELHI_DP NEWDELHI_POCI REUNION_LAT REUNION_LON REUNION_TYPE REUNION_WIND REUNION_PRES REUNION_TNUM REUNION_CI REUNION_RMW REUNION_R34_NE REUNION_R34_SE REUNION_R34_SW REUNION_R34_NW REUNION_R50_NE REUNION_R50_SE REUNION_R50_SW REUNION_R50_NW REUNION_R64_NE REUNION_R64_SE REUNION_R64_SW REUNION_R64_NW BOM_LAT BOM_LON BOM_TYPE BOM_WIND BOM_PRES BOM_TNUM BOM_CI BOM_RMW BOM_R34_NE BOM_R34_SE BOM_R34_SW BOM_R34_NW BOM_R50_NE BOM_R50_SE BOM_R50_SW BOM_R50_NW BOM_R64_NE BOM_R64_SE BOM_R64_SW BOM_R64_NW BOM_ROCI BOM_POCI BOM_EYE BOM_POS_METHOD BOM_PRES_METHOD NADI_LAT NADI_LON NADI_CAT NADI_WIND NADI_PRES WELLINGTON_LAT WELLINGTON_LON WELLINGTON_WIND WELLINGTON_PRES DS824_LAT DS824_LON DS824_STAGE DS824_WIND DS824_PRES TD9636_LAT TD9636_LON TD9636_STAGE TD9636_WIND TD9636_PRES TD9635_LAT TD9635_LON TD9635_WIND TD9635_PRES TD9635_ROCI NEUMANN_LAT NEUMANN_LON NEUMANN_CLASS NEUMANN_WIND NEUMANN_PRES MLC_LAT MLC_LON MLC_CLASS MLC_WIND MLC_PRES USA_GUST BOM_GUST BOM_GUST_PER REUNION_GUST REUNION_GUST_PER USA_SEAHGT USA_SEARAD_NE USA_SEARAD_SE USA_SEARAD_SW USA_SEARAD_NW STORM_SPEED STORM_DIR
1998228N13218 1998 48 EP CP NOT_NAMED 1998-08-16 00:00:00 TS 13.1000 -142.300 25 hurdat_epa main 1513 1485 O_____________ hurdat_epa CP011998 13.1000 -142.300 TD 25 -1 6 278
1998228N13218 1998 48 EP CP NOT_NAMED 1998-08-16 03:00:00 TS 13.1400 -142.583 main 1485 1451 P_____________ CP011998 13.1400 -142.583 TD 25 -1 7 283
1998228N13218 1998 48 EP CP NOT_NAMED 1998-08-16 06:00:00 TS 13.2429 -142.957 25 hurdat_epa main 1442 1418 O_____________ hurdat_epa CP011998 13.2000 -142.900 TD 25 -1 7 286
1998228N13218 1998 48 EP CP NOT_NAMED 1998-08-16 09:00:00 TS 13.3294 -143.265 main 1408 1375 P_____________ CP011998 13.2925 -143.277 TD 27 -1 7 286
1998228N13218 1998 48 EP CP NOT_NAMED 1998-08-16 12:00:00 TS 13.4250 -143.625 30 hurdat_epa main 1375 1323 O_____________ hurdat_epa CP011998 13.4000 -143.700 TD 30 -1 8 283
1998228N13218 1998 48 EP CP NOT_NAMED 1998-08-16 15:00:00 TS 13.5266 -144.110 main 1323 1271 P_____________ CP011998 13.5000 -144.150 TD 30 -1 10 282
1998228N13218 1998 48 EP CP NOT_NAMED 1998-08-16 18:00:00 TS 13.6267 -144.627 30 hurdat_epa main 1271 1229 O_____________ hurdat_epa CP011998 13.6000 -144.600 TD 30 -1 9 282
1998228N13218 1998 48 EP CP NOT_NAMED 1998-08-16 21:00:00 TS 13.7124 -145.035 main 1229 1187 P_____________ CP011998 13.6999 -145.015 TD 30 -1 8 283
1998228N13218 1998 48 EP CP NOT_NAMED 1998-08-17 00:00:00 TS 13.8000 -145.400 30 hurdat_epa main 1187 1153 O_____________ hurdat_epa CP011998 13.8000 -145.400 TD 30 -1 7 286
1998228N13218 1998 48 EP CP NOT_NAMED 1998-08-17 03:00:00 TS 13.9036 -145.744 main 1153 1111 P_____________ CP011998 13.8999 -145.750 TD 30 -1 7 286
1998228N13218 1998 48 EP CP NOT_NAMED 1998-08-17 06:00:00 TS 14.0000 -146.100 30 hurdat_epa main 1111 1070 O_____________ hurdat_epa CP011998 14.0000 -146.100 TD 30 -1 8 282
1998228N13218 1998 48 EP CP NOT_NAMED 1998-08-17 09:00:00 TS 14.0719 -146.529 main 1070 1035 P_____________ CP011998 14.1074 -146.485 TD 27 -1 8 279
1998228N13218 1998 48 EP CP NOT_NAMED 1998-08-17 12:00:00 TS 14.1250 -146.950 25 hurdat_epa main 1035 1002 O_____________ hurdat_epa CP011998 14.2000 -146.900 TD 25 -1 7 277
1998228N13218 1998 48 EP CP NOT_NAMED 1998-08-17 15:00:00 TS 14.1529 -147.255 main 994 968 P_____________ CP011998 14.2574 -147.335 TD 25 -1 6 277
1998228N13218 1998 48 EP CP NOT_NAMED 1998-08-17 18:00:00 TS 14.2000 -147.600 25 hurdat_epa main 968 920 O_____________ hurdat_epa CP011998 14.3000 -147.800 TD 25 -1 9 282
1998228N13218 1998 48 EP CP NOT_NAMED 1998-08-17 21:00:00 TS 14.3345 -148.128 main 920 864 P_____________ CP011998 14.3574 -148.285 TD 25 -1 11 283
1998228N13218 1998 48 EP CP NOT_NAMED 1998-08-18 00:00:00 TS 14.4500 -148.725 25 hurdat_epa main 856 824 O_____________ hurdat_epa CP011998 14.4000 -148.800 TD 25 -1 11 276
1998228N13218 1998 48 EP CP NOT_NAMED 1998-08-18 03:00:00 TS 14.4434 -149.256 main 817 778 P_____________ CP011998 14.4073 -149.328 TD 25 -1 11 267
1998228N13218 1998 48 EP CP NOT_NAMED 1998-08-18 06:00:00 TS 14.4000 -149.825 25 hurdat_epa main 778 735 O_____________ hurdat_epa CP011998 14.4000 -149.900 TD 25 -1 12 268
1998228N13218 1998 48 EP CP NOT_NAMED 1998-08-18 09:00:00 TS 14.3961 -150.481 main 727 681 P_____________ CP011998 14.3998 -150.520 TD 25 -1 13 270
1998228N13218 1998 48 EP CP NOT_NAMED 1998-08-18 12:00:00 TS 14.4000 -151.200 25 hurdat_epa main 681 639 O_____________ hurdat_epa CP011998 14.4000 -151.200 TD 25 -1 14 270
1998228N13218 1998 48 EP CP NOT_NAMED 1998-08-18 15:00:00 TS 14.3997 -151.933 main 639 596 P_____________ CP011998 14.3997 -151.913 TD 25 -1 15 270
1998228N13218 1998 48 EP CP NOT_NAMED 1998-08-18 18:00:00 TS 14.4000 -152.725 25 hurdat_epa main 596 555 O_____________ hurdat_epa CP011998 14.4000 -152.700 TD 25 -1 16 270
1998228N13218 1998 48 EP CP NOT_NAMED 1998-08-18 21:00:00 TS 14.4008 -153.591 main 551 522 P_____________ CP011998 14.4008 -153.575 TD 25 -1 17 270
1998228N13218 1998 48 EP CP NOT_NAMED 1998-08-19 00:00:00 TS 14.4000 -154.500 25 hurdat_epa main 519 O_____________ hurdat_epa CP011998 14.4000 -154.500 TD 25 -1 18 270

IBTrACS Databaseについて

本データベースは、米国NOAAが公開する1842年以降の世界の熱帯低気圧のベストトラックデータアーカイブInternational Best Track Archive for Climate Stewardship (IBTrACS)を、ウェブで閲覧しやすい形式に変換したものです。

最終更新日:2021-10-08